sensor_id;sensor_type;location;lat;lon;timestamp;temperature;humidity
18648;DHT22;9453;50.294;18.644;2024-03-22T05:01:06;9.40;99.90
18648;DHT22;9453;50.294;18.644;2024-03-22T05:03:33;9.40;99.90
18648;DHT22;9453;50.294;18.644;2024-03-22T05:05:59;9.40;99.90
18648;DHT22;9453;50.294;18.644;2024-03-22T05:08:28;9.40;99.90
18648;DHT22;9453;50.294;18.644;2024-03-22T05:10:54;9.40;99.90
18648;DHT22;9453;50.294;18.644;2024-03-22T05:13:21;9.30;99.90
18648;DHT22;9453;50.294;18.644;2024-03-22T05:15:47;9.30;99.90
18648;DHT22;9453;50.294;18.644;2024-03-22T05:18:15;9.30;99.90
18648;DHT22;9453;50.294;18.644;2024-03-22T05:20:41;9.30;99.90
18648;DHT22;9453;50.294;18.644;2024-03-22T05:23:08;9.30;99.90
18648;DHT22;9453;50.294;18.644;2024-03-22T05:25:34;9.30;99.90
18648;DHT22;9453;50.294;18.644;2024-03-22T05:28:01;9.40;99.90
18648;DHT22;9453;50.294;18.644;2024-03-22T05:30:27;9.50;99.90
18648;DHT22;9453;50.294;18.644;2024-03-22T05:32:54;9.50;99.90
18648;DHT22;9453;50.294;18.644;2024-03-22T05:35:21;9.40;99.90
18648;DHT22;9453;50.294;18.644;2024-03-22T05:37:48;9.40;99.90
18648;DHT22;9453;50.294;18.644;2024-03-22T05:40:15;9.50;99.90
18648;DHT22;9453;50.294;18.644;2024-03-22T05:42:42;9.50;99.90
18648;DHT22;9453;50.294;18.644;2024-03-22T05:45:08;9.50;99.90
18648;DHT22;9453;50.294;18.644;2024-03-22T05:47:35;9.50;99.90
18648;DHT22;9453;50.294;18.644;2024-03-22T05:50:03;9.50;99.90
18648;DHT22;9453;50.294;18.644;2024-03-22T05:52:33;9.50;99.90
18648;DHT22;9453;50.294;18.644;2024-03-22T05:54:59;9.50;99.90
18648;DHT22;9453;50.294;18.644;2024-03-22T05:57:26;9.60;99.90
18648;DHT22;9453;50.294;18.644;2024-03-22T05:59:52;9.60;99.90
18648;DHT22;9453;50.294;18.644;2024-03-22T06:02:19;9.50;99.90
18648;DHT22;9453;50.294;18.644;2024-03-22T06:04:45;9.50;99.90
18648;DHT22;9453;50.294;18.644;2024-03-22T06:07:13;9.60;99.90
18648;DHT22;9453;50.294;18.644;2024-03-22T06:09:41;9.50;99.90
18648;DHT22;9453;50.294;18.644;2024-03-22T06:12:12;9.50;99.90
18648;DHT22;9453;50.294;18.644;2024-03-22T06:14:39;9.40;99.90
18648;DHT22;9453;50.294;18.644;2024-03-22T06:17:06;9.50;99.90
18648;DHT22;9453;50.294;18.644;2024-03-22T06:19:32;9.50;99.90
18648;DHT22;9453;50.294;18.644;2024-03-22T06:21:59;9.50;99.90
18648;DHT22;9453;50.294;18.644;2024-03-22T06:24:25;9.50;99.90
18648;DHT22;9453;50.294;18.644;2024-03-22T06:26:53;9.40;99.90
18648;DHT22;9453;50.294;18.644;2024-03-22T06:29:19;9.40;99.90
18648;DHT22;9453;50.294;18.644;2024-03-22T06:31:46;9.40;99.90
18648;DHT22;9453;50.294;18.644;2024-03-22T06:34:12;9.30;99.90
18648;DHT22;9453;50.294;18.644;2024-03-22T06:36:39;9.30;99.90
18648;DHT22;9453;50.294;18.644;2024-03-22T06:39:05;9.40;99.90
18648;DHT22;9453;50.294;18.644;2024-03-22T06:41:32;9.40;99.90
18648;DHT22;9453;50.294;18.644;2024-03-22T06:43:59;9.40;99.90
18648;DHT22;9453;50.294;18.644;2024-03-22T06:46:26;9.50;99.90
18648;DHT22;9453;50.294;18.644;2024-03-22T06:48:52;9.50;99.90
18648;DHT22;9453;50.294;18.644;2024-03-22T06:51:20;9.50;99.90
18648;DHT22;9453;50.294;18.644;2024-03-22T06:53:46;9.50;99.90
18648;DHT22;9453;50.294;18.644;2024-03-22T06:56:13;9.60;99.90
18648;DHT22;9453;50.294;18.644;2024-03-22T06:58:40;9.60;99.90
18648;DHT22;9453;50.294;18.644;2024-03-22T07:01:08;9.70;99.90
18648;DHT22;9453;50.294;18.644;2024-03-22T07:03:34;9.60;99.90
18648;DHT22;9453;50.294;18.644;2024-03-22T07:06:00;9.60;99.90
18648;DHT22;9453;50.294;18.644;2024-03-22T07:08:26;9.70;99.90
18648;DHT22;9453;50.294;18.644;2024-03-22T07:10:54;9.70;99.90
18648;DHT22;9453;50.294;18.644;2024-03-22T07:13:20;9.70;99.90
18648;DHT22;9453;50.294;18.644;2024-03-22T07:15:47;9.70;99.90
18648;DHT22;9453;50.294;18.644;2024-03-22T07:18:14;9.70;99.90
18648;DHT22;9453;50.294;18.644;2024-03-22T07:20:41;9.70;99.90
18648;DHT22;9453;50.294;18.644;2024-03-22T07:23:08;9.80;99.90
18648;DHT22;9453;50.294;18.644;2024-03-22T07:25:35;9.80;99.90
18648;DHT22;9453;50.294;18.644;2024-03-22T07:28:00;9.80;99.90
18648;DHT22;9453;50.294;18.644;2024-03-22T07:30:27;9.70;99.90
18648;DHT22;9453;50.294;18.644;2024-03-22T07:32:53;9.80;99.90
18648;DHT22;9453;50.294;18.644;2024-03-22T07:35:22;9.80;99.90
18648;DHT22;9453;50.294;18.644;2024-03-22T07:37:48;9.90;99.90
18648;DHT22;9453;50.294;18.644;2024-03-22T07:40:15;10.00;99.90
18648;DHT22;9453;50.294;18.644;2024-03-22T07:42:41;10.00;99.90
18648;DHT22;9453;50.294;18.644;2024-03-22T07:45:08;10.10;99.90
18648;DHT22;9453;50.294;18.644;2024-03-22T07:47:34;10.00;99.90
18648;DHT22;9453;50.294;18.644;2024-03-22T07:50:01;9.90;99.90
18648;DHT22;9453;50.294;18.644;2024-03-22T07:52:29;9.90;99.90
18648;DHT22;9453;50.294;18.644;2024-03-22T07:54:56;9.90;99.90
18648;DHT22;9453;50.294;18.644;2024-03-22T07:57:22;9.90;99.90
18648;DHT22;9453;50.294;18.644;2024-03-22T07:59:49;10.10;99.90
18648;DHT22;9453;50.294;18.644;2024-03-22T08:02:15;10.10;99.90
18648;DHT22;9453;50.294;18.644;2024-03-22T08:04:42;10.20;99.90
18648;DHT22;9453;50.294;18.644;2024-03-22T08:07:08;10.30;99.90
18648;DHT22;9453;50.294;18.644;2024-03-22T08:09:36;10.30;99.90
18648;DHT22;9453;50.294;18.644;2024-03-22T08:12:02;10.50;99.90
18648;DHT22;9453;50.294;18.644;2024-03-22T08:14:29;10.60;99.90
18648;DHT22;9453;50.294;18.644;2024-03-22T08:16:55;10.60;99.90
18648;DHT22;9453;50.294;18.644;2024-03-22T08:19:22;10.70;99.90
18648;DHT22;9453;50.294;18.644;2024-03-22T08:21:48;10.50;99.90
18648;DHT22;9453;50.294;18.644;2024-03-22T08:24:15;10.30;99.90
18648;DHT22;9453;50.294;18.644;2024-03-22T08:26:42;10.10;99.90
18648;DHT22;9453;50.294;18.644;2024-03-22T08:29:12;10.30;99.90
18648;DHT22;9453;50.294;18.644;2024-03-22T08:31:38;10.30;99.90
18648;DHT22;9453;50.294;18.644;2024-03-22T08:34:05;10.40;99.90
18648;DHT22;9453;50.294;18.644;2024-03-22T08:36:31;10.40;99.90
18648;DHT22;9453;50.294;18.644;2024-03-22T08:38:58;10.30;99.90
18648;DHT22;9453;50.294;18.644;2024-03-22T08:41:24;10.20;99.90
18648;DHT22;9453;50.294;18.644;2024-03-22T08:43:52;10.20;99.90
18648;DHT22;9453;50.294;18.644;2024-03-22T08:46:18;10.30;99.90
18648;DHT22;9453;50.294;18.644;2024-03-22T08:48:47;10.50;99.90
18648;DHT22;9453;50.294;18.644;2024-03-22T08:51:13;10.70;99.90
18648;DHT22;9453;50.294;18.644;2024-03-22T08:53:40;11.00;99.90
18648;DHT22;9453;50.294;18.644;2024-03-22T08:56:06;11.00;99.80
18648;DHT22;9453;50.294;18.644;2024-03-22T08:58:33;11.10;99.10
18648;DHT22;9453;50.294;18.644;2024-03-22T09:01:00;11.00;98.80
18648;DHT22;9453;50.294;18.644;2024-03-22T09:03:27;10.90;99.00
18648;DHT22;9453;50.294;18.644;2024-03-22T09:05:53;11.10;99.40
18648;DHT22;9453;50.294;18.644;2024-03-22T09:08:20;11.20;98.50
18648;DHT22;9453;50.294;18.644;2024-03-22T09:10:47;11.00;98.20
18648;DHT22;9453;50.294;18.644;2024-03-22T09:13:14;11.10;98.10
18648;DHT22;9453;50.294;18.644;2024-03-22T09:15:39;11.00;98.00
18648;DHT22;9453;50.294;18.644;2024-03-22T09:18:08;11.20;97.70
18648;DHT22;9453;50.294;18.644;2024-03-22T09:20:34;11.10;97.50
18648;DHT22;9453;50.294;18.644;2024-03-22T09:23:01;11.10;97.60
18648;DHT22;9453;50.294;18.644;2024-03-22T09:25:27;11.30;97.40
18648;DHT22;9453;50.294;18.644;2024-03-22T09:27:54;11.20;96.90
18648;DHT22;9453;50.294;18.644;2024-03-22T09:30:20;11.30;96.80
18648;DHT22;9453;50.294;18.644;2024-03-22T09:32:47;11.40;96.60
18648;DHT22;9453;50.294;18.644;2024-03-22T09:35:15;11.50;96.40
18648;DHT22;9453;50.294;18.644;2024-03-22T09:37:43;11.50;96.40
18648;DHT22;9453;50.294;18.644;2024-03-22T09:40:10;11.60;96.00
18648;DHT22;9453;50.294;18.644;2024-03-22T09:42:38;11.60;95.40
18648;DHT22;9453;50.294;18.644;2024-03-22T09:45:08;11.80;95.40
18648;DHT22;9453;50.294;18.644;2024-03-22T09:47:36;11.80;95.20
18648;DHT22;9453;50.294;18.644;2024-03-22T09:50:03;12.10;94.70
18648;DHT22;9453;50.294;18.644;2024-03-22T09:52:34;12.30;94.90
18648;DHT22;9453;50.294;18.644;2024-03-22T09:55:00;12.50;94.20
18648;DHT22;9453;50.294;18.644;2024-03-22T09:57:31;12.60;93.30
18648;DHT22;9453;50.294;18.644;2024-03-22T09:59:57;12.50;93.00
18648;DHT22;9453;50.294;18.644;2024-03-22T10:02:24;12.50;93.40
18648;DHT22;9453;50.294;18.644;2024-03-22T10:04:52;12.50;92.90
18648;DHT22;9453;50.294;18.644;2024-03-22T10:07:19;12.70;92.80
18648;DHT22;9453;50.294;18.644;2024-03-22T10:09:46;12.90;92.40
18648;DHT22;9453;50.294;18.644;2024-03-22T10:12:13;13.20;91.60
18648;DHT22;9453;50.294;18.644;2024-03-22T10:14:42;13.40;90.90
18648;DHT22;9453;50.294;18.644;2024-03-22T10:17:10;13.50;89.90
18648;DHT22;9453;50.294;18.644;2024-03-22T10:19:36;13.50;88.20
18648;DHT22;9453;50.294;18.644;2024-03-22T10:22:03;13.80;88.90
18648;DHT22;9453;50.294;18.644;2024-03-22T10:24:29;14.00;87.90
18648;DHT22;9453;50.294;18.644;2024-03-22T10:26:59;14.30;87.10
18648;DHT22;9453;50.294;18.644;2024-03-22T10:29:25;14.50;85.60
18648;DHT22;9453;50.294;18.644;2024-03-22T10:31:55;14.80;85.60
18648;DHT22;9453;50.294;18.644;2024-03-22T10:34:21;14.70;83.80
18648;DHT22;9453;50.294;18.644;2024-03-22T10:36:49;14.40;82.80
18648;DHT22;9453;50.294;18.644;2024-03-22T10:39:17;14.60;83.30
18648;DHT22;9453;50.294;18.644;2024-03-22T10:41:44;14.50;82.70
18648;DHT22;9453;50.294;18.644;2024-03-22T10:44:12;14.50;82.50
18648;DHT22;9453;50.294;18.644;2024-03-22T10:46:44;14.60;82.90
18648;DHT22;9453;50.294;18.644;2024-03-22T10:49:15;14.70;82.90
18648;DHT22;9453;50.294;18.644;2024-03-22T10:51:43;14.70;81.00
18648;DHT22;9453;50.294;18.644;2024-03-22T10:54:10;14.70;81.30
18648;DHT22;9453;50.294;18.644;2024-03-22T10:56:41;14.70;80.80
18648;DHT22;9453;50.294;18.644;2024-03-22T10:59:07;14.80;81.10
18648;DHT22;9453;50.294;18.644;2024-03-22T11:01:35;15.00;79.50
18648;DHT22;9453;50.294;18.644;2024-03-22T11:04:05;15.20;80.40
18648;DHT22;9453;50.294;18.644;2024-03-22T11:06:36;15.30;79.40
18648;DHT22;9453;50.294;18.644;2024-03-22T11:09:03;15.50;79.20
18648;DHT22;9453;50.294;18.644;2024-03-22T11:11:30;15.70;77.90
18648;DHT22;9453;50.294;18.644;2024-03-22T11:13:57;15.90;78.50
18648;DHT22;9453;50.294;18.644;2024-03-22T11:16:24;15.90;77.80
18648;DHT22;9453;50.294;18.644;2024-03-22T11:18:51;16.00;76.60
18648;DHT22;9453;50.294;18.644;2024-03-22T11:21:18;16.10;76.70
18648;DHT22;9453;50.294;18.644;2024-03-22T11:23:45;16.10;75.40
18648;DHT22;9453;50.294;18.644;2024-03-22T11:26:12;16.20;73.40
18648;DHT22;9453;50.294;18.644;2024-03-22T11:28:38;16.30;72.40
18648;DHT22;9453;50.294;18.644;2024-03-22T11:31:05;16.20;71.40
18648;DHT22;9453;50.294;18.644;2024-03-22T11:33:31;16.20;71.40
18648;DHT22;9453;50.294;18.644;2024-03-22T11:36:00;16.10;70.30
18648;DHT22;9453;50.294;18.644;2024-03-22T11:38:26;16.10;70.80
18648;DHT22;9453;50.294;18.644;2024-03-22T11:40:55;16.00;70.60
18648;DHT22;9453;50.294;18.644;2024-03-22T11:43:21;15.80;70.60
18648;DHT22;9453;50.294;18.644;2024-03-22T11:45:48;15.70;71.30
18648;DHT22;9453;50.294;18.644;2024-03-22T11:48:14;15.50;72.30
18648;DHT22;9453;50.294;18.644;2024-03-22T11:50:41;15.50;73.30
18648;DHT22;9453;50.294;18.644;2024-03-22T11:53:09;15.40;73.20
18648;DHT22;9453;50.294;18.644;2024-03-22T11:55:36;15.30;73.40
18648;DHT22;9453;50.294;18.644;2024-03-22T11:58:02;15.30;74.50
18648;DHT22;9453;50.294;18.644;2024-03-22T12:00:28;15.30;74.40
18648;DHT22;9453;50.294;18.644;2024-03-22T12:02:55;15.20;74.30
18648;DHT22;9453;50.294;18.644;2024-03-22T12:05:21;15.10;74.50
18648;DHT22;9453;50.294;18.644;2024-03-22T12:07:47;15.10;74.20
18648;DHT22;9453;50.294;18.644;2024-03-22T12:10:15;15.10;74.30
18648;DHT22;9453;50.294;18.644;2024-03-22T12:12:41;15.20;74.30
18648;DHT22;9453;50.294;18.644;2024-03-22T12:15:08;15.40;73.90
18648;DHT22;9453;50.294;18.644;2024-03-22T12:17:34;15.50;72.70
18648;DHT22;9453;50.294;18.644;2024-03-22T12:20:03;15.50;72.00
18648;DHT22;9453;50.294;18.644;2024-03-22T12:22:29;15.60;72.30
18648;DHT22;9453;50.294;18.644;2024-03-22T12:24:56;15.60;72.40
18648;DHT22;9453;50.294;18.644;2024-03-22T12:27:24;15.70;72.70
18648;DHT22;9453;50.294;18.644;2024-03-22T12:29:50;16.00;72.20
18648;DHT22;9453;50.294;18.644;2024-03-22T12:32:16;16.00;71.70
18648;DHT22;9453;50.294;18.644;2024-03-22T12:34:43;16.20;71.10
18648;DHT22;9453;50.294;18.644;2024-03-22T12:37:09;16.10;70.90
18648;DHT22;9453;50.294;18.644;2024-03-22T12:39:36;16.20;69.60
18648;DHT22;9453;50.294;18.644;2024-03-22T12:42:03;16.30;69.80
18648;DHT22;9453;50.294;18.644;2024-03-22T12:44:31;16.30;69.60
18648;DHT22;9453;50.294;18.644;2024-03-22T12:46:57;16.40;70.10
18648;DHT22;9453;50.294;18.644;2024-03-22T12:49:24;16.50;69.20
18648;DHT22;9453;50.294;18.644;2024-03-22T12:51:50;16.50;69.40
18648;DHT22;9453;50.294;18.644;2024-03-22T12:54:17;16.50;69.60
18648;DHT22;9453;50.294;18.644;2024-03-22T12:56:44;16.50;69.40
18648;DHT22;9453;50.294;18.644;2024-03-22T12:59:11;16.60;69.10
18648;DHT22;9453;50.294;18.644;2024-03-22T13:01:38;16.60;68.40
18648;DHT22;9453;50.294;18.644;2024-03-22T13:04:05;16.50;68.30
18648;DHT22;9453;50.294;18.644;2024-03-22T13:06:31;16.50;68.90
18648;DHT22;9453;50.294;18.644;2024-03-22T13:09:00;16.50;68.20
18648;DHT22;9453;50.294;18.644;2024-03-22T13:11:26;16.50;69.10
18648;DHT22;9453;50.294;18.644;2024-03-22T13:13:53;16.40;69.10
18648;DHT22;9453;50.294;18.644;2024-03-22T13:16:19;16.20;70.30
18648;DHT22;9453;50.294;18.644;2024-03-22T13:18:47;16.20;70.20
18648;DHT22;9453;50.294;18.644;2024-03-22T13:21:13;16.20;70.60
18648;DHT22;9453;50.294;18.644;2024-03-22T13:23:40;16.10;69.00
18648;DHT22;9453;50.294;18.644;2024-03-22T13:26:06;16.00;69.90
18648;DHT22;9453;50.294;18.644;2024-03-22T13:28:33;15.90;70.60
18648;DHT22;9453;50.294;18.644;2024-03-22T13:31:02;15.80;71.00
18648;DHT22;9453;50.294;18.644;2024-03-22T13:33:32;15.80;71.20
18648;DHT22;9453;50.294;18.644;2024-03-22T13:36:00;15.70;70.80
18648;DHT22;9453;50.294;18.644;2024-03-22T13:38:27;15.60;70.60
18648;DHT22;9453;50.294;18.644;2024-03-22T13:40:54;15.70;71.10
18648;DHT22;9453;50.294;18.644;2024-03-22T13:43:21;15.70;71.10
18648;DHT22;9453;50.294;18.644;2024-03-22T13:45:50;15.80;71.10
18648;DHT22;9453;50.294;18.644;2024-03-22T13:48:20;15.80;70.70
18648;DHT22;9453;50.294;18.644;2024-03-22T13:50:49;15.80;70.40
18648;DHT22;9453;50.294;18.644;2024-03-22T13:53:17;15.30;71.40
18648;DHT22;9453;50.294;18.644;2024-03-22T13:55:43;15.40;72.70
18648;DHT22;9453;50.294;18.644;2024-03-22T13:58:12;15.60;72.50
18648;DHT22;9453;50.294;18.644;2024-03-22T14:00:38;15.60;72.20
18648;DHT22;9453;50.294;18.644;2024-03-22T14:03:05;15.70;72.00
18648;DHT22;9453;50.294;18.644;2024-03-22T14:05:31;15.70;71.90
18648;DHT22;9453;50.294;18.644;2024-03-22T14:07:58;15.80;72.40
18648;DHT22;9453;50.294;18.644;2024-03-22T14:10:26;15.80;72.50
18648;DHT22;9453;50.294;18.644;2024-03-22T14:12:55;15.90;72.90
18648;DHT22;9453;50.294;18.644;2024-03-22T14:15:22;16.00;73.20
18648;DHT22;9453;50.294;18.644;2024-03-22T14:17:50;15.90;73.30
18648;DHT22;9453;50.294;18.644;2024-03-22T14:20:17;15.90;73.40
18648;DHT22;9453;50.294;18.644;2024-03-22T14:22:43;16.00;73.50
18648;DHT22;9453;50.294;18.644;2024-03-22T14:25:10;15.90;73.40
18648;DHT22;9453;50.294;18.644;2024-03-22T14:27:38;15.90;72.60
18648;DHT22;9453;50.294;18.644;2024-03-22T14:30:05;15.90;72.80
18648;DHT22;9453;50.294;18.644;2024-03-22T14:32:33;15.80;72.70
18648;DHT22;9453;50.294;18.644;2024-03-22T14:35:00;15.80;73.00
18648;DHT22;9453;50.294;18.644;2024-03-22T14:37:26;15.90;72.90
18648;DHT22;9453;50.294;18.644;2024-03-22T14:39:53;15.90;73.00
18648;DHT22;9453;50.294;18.644;2024-03-22T14:42:19;15.80;73.10
18648;DHT22;9453;50.294;18.644;2024-03-22T14:44:47;15.90;73.50
18648;DHT22;9453;50.294;18.644;2024-03-22T14:47:13;15.70;73.30
18648;DHT22;9453;50.294;18.644;2024-03-22T14:49:40;15.70;74.00
18648;DHT22;9453;50.294;18.644;2024-03-22T14:52:07;15.70;74.20
18648;DHT22;9453;50.294;18.644;2024-03-22T14:54:34;15.50;73.80
18648;DHT22;9453;50.294;18.644;2024-03-22T14:57:00;15.50;74.00
18648;DHT22;9453;50.294;18.644;2024-03-22T14:59:27;15.40;74.50
18648;DHT22;9453;50.294;18.644;2024-03-22T15:01:55;15.40;74.60
18648;DHT22;9453;50.294;18.644;2024-03-22T15:04:22;15.30;74.70
18648;DHT22;9453;50.294;18.644;2024-03-22T15:06:48;15.30;75.30
18648;DHT22;9453;50.294;18.644;2024-03-22T15:09:16;15.20;75.10
18648;DHT22;9453;50.294;18.644;2024-03-22T15:11:44;15.10;75.40
18648;DHT22;9453;50.294;18.644;2024-03-22T15:14:11;15.00;75.50
18648;DHT22;9453;50.294;18.644;2024-03-22T15:16:37;15.00;76.20
18648;DHT22;9453;50.294;18.644;2024-03-22T15:19:05;15.00;76.40
18648;DHT22;9453;50.294;18.644;2024-03-22T15:21:31;14.90;76.40
18648;DHT22;9453;50.294;18.644;2024-03-22T15:23:58;14.80;76.70
18648;DHT22;9453;50.294;18.644;2024-03-22T15:26:24;14.70;76.80
18648;DHT22;9453;50.294;18.644;2024-03-22T15:28:51;14.70;77.00
18648;DHT22;9453;50.294;18.644;2024-03-22T15:31:17;14.60;77.10
18648;DHT22;9453;50.294;18.644;2024-03-22T15:33:43;14.50;77.40
18648;DHT22;9453;50.294;18.644;2024-03-22T15:36:11;14.40;77.80
18648;DHT22;9453;50.294;18.644;2024-03-22T15:38:38;14.40;78.80
18648;DHT22;9453;50.294;18.644;2024-03-22T15:41:04;14.30;79.50
18648;DHT22;9453;50.294;18.644;2024-03-22T15:43:31;14.20;80.10
18648;DHT22;9453;50.294;18.644;2024-03-22T15:45:57;14.10;80.90
18648;DHT22;9453;50.294;18.644;2024-03-22T15:48:23;14.00;81.00
18648;DHT22;9453;50.294;18.644;2024-03-22T15:50:50;13.90;81.30
18648;DHT22;9453;50.294;18.644;2024-03-22T15:53:18;13.90;81.90
18648;DHT22;9453;50.294;18.644;2024-03-22T15:55:44;13.80;82.90
18648;DHT22;9453;50.294;18.644;2024-03-22T15:58:11;13.80;83.90
18648;DHT22;9453;50.294;18.644;2024-03-22T16:00:37;13.70;85.00
18648;DHT22;9453;50.294;18.644;2024-03-22T16:03:04;13.70;86.50
18648;DHT22;9453;50.294;18.644;2024-03-22T16:05:30;13.60;87.50
18648;DHT22;9453;50.294;18.644;2024-03-22T16:07:57;13.60;89.30
18648;DHT22;9453;50.294;18.644;2024-03-22T16:10:24;13.50;90.00
18648;DHT22;9453;50.294;18.644;2024-03-22T16:12:52;13.40;90.40
18648;DHT22;9453;50.294;18.644;2024-03-22T16:15:17;13.30;91.00
18648;DHT22;9453;50.294;18.644;2024-03-22T16:17:45;13.30;91.70
18648;DHT22;9453;50.294;18.644;2024-03-22T16:20:11;13.20;92.40
18648;DHT22;9453;50.294;18.644;2024-03-22T16:22:38;13.10;93.00
18648;DHT22;9453;50.294;18.644;2024-03-22T16:25:05;13.10;93.70
18648;DHT22;9453;50.294;18.644;2024-03-22T16:27:34;13.10;94.10
18648;DHT22;9453;50.294;18.644;2024-03-22T16:30:00;13.00;94.70
18648;DHT22;9453;50.294;18.644;2024-03-22T16:32:27;13.00;95.50
18648;DHT22;9453;50.294;18.644;2024-03-22T16:34:53;12.90;96.20
18648;DHT22;9453;50.294;18.644;2024-03-22T16:37:20;12.90;96.90
18648;DHT22;9453;50.294;18.644;2024-03-22T16:39:46;12.90;97.20
18648;DHT22;9453;50.294;18.644;2024-03-22T16:42:13;12.90;97.80
18648;DHT22;9453;50.294;18.644;2024-03-22T16:44:40;12.70;97.90
18648;DHT22;9453;50.294;18.644;2024-03-22T16:47:07;12.80;98.10
18648;DHT22;9453;50.294;18.644;2024-03-22T16:49:33;12.70;98.20
18648;DHT22;9453;50.294;18.644;2024-03-22T16:52:00;12.60;98.40
18648;DHT22;9453;50.294;18.644;2024-03-22T16:54:26;12.70;98.50
18648;DHT22;9453;50.294;18.644;2024-03-22T16:56:54;12.60;98.50
18648;DHT22;9453;50.294;18.644;2024-03-22T16:59:20;12.50;98.20
18648;DHT22;9453;50.294;18.644;2024-03-22T17:01:49;12.50;98.20
18648;DHT22;9453;50.294;18.644;2024-03-22T17:04:16;12.50;98.40
18648;DHT22;9453;50.294;18.644;2024-03-22T17:06:44;12.50;98.50
18648;DHT22;9453;50.294;18.644;2024-03-22T17:09:09;12.50;98.50
18648;DHT22;9453;50.294;18.644;2024-03-22T17:11:36;12.40;98.50
18648;DHT22;9453;50.294;18.644;2024-03-22T17:14:02;12.40;98.60
18648;DHT22;9453;50.294;18.644;2024-03-22T17:16:30;12.40;98.70
18648;DHT22;9453;50.294;18.644;2024-03-22T17:18:57;12.40;98.70
18648;DHT22;9453;50.294;18.644;2024-03-22T17:21:24;12.40;98.60
18648;DHT22;9453;50.294;18.644;2024-03-22T17:23:50;12.40;98.60
18648;DHT22;9453;50.294;18.644;2024-03-22T17:26:17;12.40;98.70
18648;DHT22;9453;50.294;18.644;2024-03-22T17:28:44;12.40;98.80
18648;DHT22;9453;50.294;18.644;2024-03-22T17:31:11;12.40;98.80
18648;DHT22;9453;50.294;18.644;2024-03-22T17:33:37;12.40;98.70
18648;DHT22;9453;50.294;18.644;2024-03-22T17:36:07;12.60;98.80
18648;DHT22;9453;50.294;18.644;2024-03-22T17:38:33;12.30;98.40
18648;DHT22;9453;50.294;18.644;2024-03-22T17:40:59;12.30;98.10
18648;DHT22;9453;50.294;18.644;2024-03-22T17:43:27;12.30;97.80
18648;DHT22;9453;50.294;18.644;2024-03-22T17:45:57;12.30;97.50
18648;DHT22;9453;50.294;18.644;2024-03-22T17:48:23;12.20;96.60
18648;DHT22;9453;50.294;18.644;2024-03-22T17:50:50;12.20;95.60
18648;DHT22;9453;50.294;18.644;2024-03-22T17:53:18;12.10;94.90
18648;DHT22;9453;50.294;18.644;2024-03-22T17:55:45;12.20;94.20
18648;DHT22;9453;50.294;18.644;2024-03-22T17:58:10;12.10;93.80
18648;DHT22;9453;50.294;18.644;2024-03-22T18:00:37;12.10;93.30
18648;DHT22;9453;50.294;18.644;2024-03-22T18:03:04;12.10;92.90
18648;DHT22;9453;50.294;18.644;2024-03-22T18:05:31;12.00;92.20
18648;DHT22;9453;50.294;18.644;2024-03-22T18:07:57;12.00;91.80
18648;DHT22;9453;50.294;18.644;2024-03-22T18:10:26;12.00;91.40
18648;DHT22;9453;50.294;18.644;2024-03-22T18:12:53;12.00;91.20
18648;DHT22;9453;50.294;18.644;2024-03-22T18:15:20;12.00;91.00
18648;DHT22;9453;50.294;18.644;2024-03-22T18:17:47;12.00;91.00
18648;DHT22;9453;50.294;18.644;2024-03-22T18:20:14;11.90;90.70
18648;DHT22;9453;50.294;18.644;2024-03-22T18:22:43;12.00;90.80
18648;DHT22;9453;50.294;18.644;2024-03-22T18:25:11;11.90;90.70
18648;DHT22;9453;50.294;18.644;2024-03-22T18:27:38;11.90;90.60
18648;DHT22;9453;50.294;18.644;2024-03-22T18:30:06;12.00;90.50
18648;DHT22;9453;50.294;18.644;2024-03-22T18:32:33;11.90;90.00
18648;DHT22;9453;50.294;18.644;2024-03-22T18:35:00;11.90;89.90
18648;DHT22;9453;50.294;18.644;2024-03-22T18:37:27;11.90;89.40
18648;DHT22;9453;50.294;18.644;2024-03-22T18:39:54;11.90;88.60
18648;DHT22;9453;50.294;18.644;2024-03-22T18:42:20;11.90;88.10
18648;DHT22;9453;50.294;18.644;2024-03-22T18:44:48;11.90;87.70
18648;DHT22;9453;50.294;18.644;2024-03-22T18:47:14;11.90;87.30
18648;DHT22;9453;50.294;18.644;2024-03-22T18:49:41;11.80;86.50
18648;DHT22;9453;50.294;18.644;2024-03-22T18:52:07;11.80;86.50
18648;DHT22;9453;50.294;18.644;2024-03-22T18:54:34;11.80;86.40
18648;DHT22;9453;50.294;18.644;2024-03-22T18:57:01;11.80;85.30
18648;DHT22;9453;50.294;18.644;2024-03-22T18:59:29;11.90;85.00
18648;DHT22;9453;50.294;18.644;2024-03-22T19:01:57;11.80;84.50
18648;DHT22;9453;50.294;18.644;2024-03-22T19:04:23;11.80;84.70
18648;DHT22;9453;50.294;18.644;2024-03-22T19:06:50;11.80;84.60
18648;DHT22;9453;50.294;18.644;2024-03-22T19:09:16;11.90;84.50
18648;DHT22;9453;50.294;18.644;2024-03-22T19:11:42;11.80;84.40
18648;DHT22;9453;50.294;18.644;2024-03-22T19:14:08;11.80;84.30
18648;DHT22;9453;50.294;18.644;2024-03-22T19:16:35;11.80;84.50
18648;DHT22;9453;50.294;18.644;2024-03-22T19:19:03;11.80;83.60
18648;DHT22;9453;50.294;18.644;2024-03-22T19:21:30;11.80;83.70
18648;DHT22;9453;50.294;18.644;2024-03-22T19:23:56;11.80;83.90
18648;DHT22;9453;50.294;18.644;2024-03-22T19:26:23;11.80;83.70
18648;DHT22;9453;50.294;18.644;2024-03-22T19:28:49;11.80;83.60
18648;DHT22;9453;50.294;18.644;2024-03-22T19:31:17;11.80;83.70
18648;DHT22;9453;50.294;18.644;2024-03-22T19:33:43;11.80;84.10
18648;DHT22;9453;50.294;18.644;2024-03-22T19:36:12;11.80;83.90
18648;DHT22;9453;50.294;18.644;2024-03-22T19:38:38;11.80;83.70
18648;DHT22;9453;50.294;18.644;2024-03-22T19:41:05;11.80;84.10
18648;DHT22;9453;50.294;18.644;2024-03-22T19:43:33;11.80;83.90
18648;DHT22;9453;50.294;18.644;2024-03-22T19:46:00;11.80;84.00
18648;DHT22;9453;50.294;18.644;2024-03-22T19:48:28;11.80;84.00
18648;DHT22;9453;50.294;18.644;2024-03-22T19:50:55;11.80;84.30
18648;DHT22;9453;50.294;18.644;2024-03-22T19:53:22;11.80;85.00
18648;DHT22;9453;50.294;18.644;2024-03-22T19:55:49;11.80;84.90
18648;DHT22;9453;50.294;18.644;2024-03-22T19:58:15;11.80;85.00
18648;DHT22;9453;50.294;18.644;2024-03-22T20:00:42;11.80;85.10
18648;DHT22;9453;50.294;18.644;2024-03-22T20:03:08;11.70;85.20
18648;DHT22;9453;50.294;18.644;2024-03-22T20:05:35;11.70;85.00
18648;DHT22;9453;50.294;18.644;2024-03-22T20:08:01;11.70;85.00
18648;DHT22;9453;50.294;18.644;2024-03-22T20:10:29;11.70;85.00
18648;DHT22;9453;50.294;18.644;2024-03-22T20:12:56;11.70;84.60
18648;DHT22;9453;50.294;18.644;2024-03-22T20:15:23;11.70;84.10
18648;DHT22;9453;50.294;18.644;2024-03-22T20:17:52;11.70;83.70
18648;DHT22;9453;50.294;18.644;2024-03-22T20:20:20;11.80;83.80
18648;DHT22;9453;50.294;18.644;2024-03-22T20:22:46;11.70;83.50
18648;DHT22;9453;50.294;18.644;2024-03-22T20:25:13;11.70;83.10
18648;DHT22;9453;50.294;18.644;2024-03-22T20:27:40;11.80;83.30
18648;DHT22;9453;50.294;18.644;2024-03-22T20:30:08;11.70;83.10